Ledbetter, Texas
Current Conditions -  °F | °C
As of 9:15 PM on Friday 21 Nov 2014 (Local Time) from KGYB Reporting Station
Overcast Overcast  
Wind Chill: 19°   Ceiling: 1800
Heat Index: 19°   Visibility: 10mi
Dew Point: 18°   Wind: 8mph
Humidity: 91%   Direction: 140°SE
Pressure: 30.13"   Gusts: NA
Location:  30.15°N, 96.79°W
Report Text: KGYB 220315Z AUTO 14007KT 10SM BKN018 OVC024 19/18 A3013 RMK AO2 T01900175
Loading
Personal Weather Stations






























Interactive Weather Map New forecast layout! Learn more

10-Day Weather Forecast

Advertisements
Track Severe Weather on mobile